createdAt,value
2023-01-30T00:00:44.274Z,89.63
2023-01-30T00:03:47.116Z,88.99
2023-01-30T00:06:49.625Z,88.76
2023-01-30T00:09:52.061Z,87.81
2023-01-30T00:12:54.446Z,88.01
2023-01-30T00:15:56.900Z,88.12
2023-01-30T00:18:59.551Z,88.63
2023-01-30T00:22:01.953Z,89.05
2023-01-30T00:25:04.890Z,87.96
2023-01-30T00:28:07.376Z,87.78
2023-01-30T00:31:10.214Z,86.82
2023-01-30T00:34:12.643Z,87.57
2023-01-30T00:37:15.747Z,86.36
2023-01-30T00:40:18.469Z,87.47
2023-01-30T00:43:39.982Z,87.37
2023-01-30T00:47:00.879Z,87.13
2023-01-30T00:50:03.751Z,87.73
2023-01-30T00:53:06.241Z,88.08
2023-01-30T00:56:08.671Z,89.05
2023-01-30T00:59:11.178Z,88.47
2023-01-30T01:02:13.606Z,88.60
2023-01-30T01:05:16.612Z,88.72
2023-01-30T01:08:20.241Z,88.36
2023-01-30T01:11:25.883Z,88.89
2023-01-30T01:14:28.297Z,89.25
2023-01-30T01:17:30.955Z,89.42
2023-01-30T01:20:33.741Z,89.77
2023-01-30T01:23:36.160Z,89.30
2023-01-30T01:26:38.660Z,88.18
2023-01-30T01:29:41.184Z,87.27
2023-01-30T01:32:43.972Z,87.02
2023-01-30T01:35:47.847Z,87.82
2023-01-30T01:38:51.668Z,87.84
2023-01-30T01:41:54.116Z,87.18
2023-01-30T01:45:18.791Z,86.40
2023-01-30T01:48:35.233Z,87.38
2023-01-30T01:51:51.139Z,88.33
2023-01-30T01:55:00.942Z,88.42
2023-01-30T01:58:08.811Z,87.85
2023-01-30T02:01:11.719Z,87.60
2023-01-30T02:04:14.444Z,87.30
2023-01-30T02:07:21.850Z,86.25
2023-01-30T02:10:29.549Z,86.12
2023-01-30T02:13:32.559Z,86.68
2023-01-30T02:16:37.016Z,86.38
2023-01-30T02:19:49.112Z,86.53
2023-01-30T02:23:13.123Z,86.28
2023-01-30T02:26:38.842Z,87.07
2023-01-30T02:30:07.412Z,87.45
2023-01-30T02:33:36.991Z,86.25
2023-01-30T02:36:58.885Z,87.33
2023-01-30T02:40:33.582Z,88.09
2023-01-30T02:44:06.082Z,88.41
2023-01-30T02:47:16.569Z,89.02
2023-01-30T02:50:57.393Z,88.98
2023-01-30T02:54:00.459Z,88.35
2023-01-30T02:57:02.895Z,87.75
2023-01-30T03:00:06.855Z,87.64
2023-01-30T03:03:18.649Z,88.07
2023-01-30T03:06:30.030Z,88.49
2023-01-30T03:09:59.415Z,88.45
2023-01-30T03:13:22.037Z,87.14
2023-01-30T03:16:35.814Z,85.05
2023-01-30T03:19:38.522Z,83.99
2023-01-30T03:22:41.338Z,82.79
2023-01-30T03:25:46.298Z,81.77
2023-01-30T03:28:49.956Z,81.67
2023-01-30T03:31:52.550Z,81.89
2023-01-30T03:34:55.024Z,81.40
2023-01-30T03:37:58.637Z,82.71
2023-01-30T03:41:02.350Z,84.22
2023-01-30T03:44:04.913Z,84.30
2023-01-30T03:47:07.935Z,84.47
2023-01-30T03:50:11.033Z,83.54
2023-01-30T03:53:13.570Z,82.41
2023-01-30T03:56:16.348Z,81.92
2023-01-30T03:59:19.760Z,81.63
2023-01-30T04:02:30.466Z,81.48
2023-01-30T04:05:34.849Z,81.15
2023-01-30T04:08:41.038Z,81.44
2023-01-30T04:11:46.100Z,82.41
2023-01-30T04:14:48.531Z,83.08
2023-01-30T04:18:00.442Z,84.31
2023-01-30T04:21:02.846Z,83.74
2023-01-30T04:24:10.765Z,83.59
2023-01-30T04:27:13.286Z,83.94
2023-01-30T04:30:29.747Z,84.50
2023-01-30T04:33:50.400Z,84.61
2023-01-30T04:36:52.883Z,85.10
2023-01-30T04:39:55.341Z,85.44
2023-01-30T04:43:01.890Z,85.92
2023-01-30T04:46:36.491Z,86.51
2023-01-30T04:49:39.240Z,86.30
2023-01-30T04:52:42.939Z,86.41
2023-01-30T04:55:46.825Z,86.41
2023-01-30T04:58:49.607Z,86.61
2023-01-30T05:01:53.460Z,86.67
2023-01-30T05:04:56.048Z,86.27
2023-01-30T05:07:58.411Z,87.33
2023-01-30T05:11:01.105Z,87.19
2023-01-30T05:14:03.551Z,87.80
2023-01-30T05:17:06.088Z,86.99
2023-01-30T05:20:10.984Z,87.68
2023-01-30T05:23:13.338Z,86.78
2023-01-30T05:26:16.153Z,86.99
2023-01-30T05:29:18.709Z,87.29
2023-01-30T05:32:21.325Z,86.85
2023-01-30T05:35:23.788Z,87.26
2023-01-30T05:38:26.855Z,87.59
2023-01-30T05:41:30.667Z,87.37
2023-01-30T05:44:33.172Z,88.63
2023-01-30T05:47:35.625Z,88.39
2023-01-30T05:50:38.068Z,87.88
2023-01-30T05:53:40.536Z,88.04
2023-01-30T05:56:43.240Z,87.61
2023-01-30T05:59:45.740Z,87.61
2023-01-30T06:02:48.221Z,88.42
2023-01-30T06:05:50.686Z,88.24
2023-01-30T06:08:56.926Z,87.67
2023-01-30T06:11:59.442Z,87.76
2023-01-30T06:15:01.875Z,87.74
2023-01-30T06:18:04.353Z,87.26
2023-01-30T06:21:07.172Z,87.48
2023-01-30T06:24:09.589Z,87.38
2023-01-30T06:27:12.096Z,88.46
2023-01-30T06:30:14.704Z,87.60
2023-01-30T06:33:17.491Z,87.62
2023-01-30T06:36:19.937Z,87.83
2023-01-30T06:39:25.096Z,88.17
2023-01-30T06:42:27.522Z,88.58
2023-01-30T06:45:30.053Z,88.89
2023-01-30T06:48:32.700Z,89.34
2023-01-30T06:51:35.120Z,89.33
2023-01-30T06:54:37.597Z,88.71
2023-01-30T06:57:40.480Z,89.12
2023-01-30T07:00:43.745Z,88.52
2023-01-30T07:03:49.283Z,88.23
2023-01-30T07:06:51.991Z,88.48
2023-01-30T07:10:06.985Z,88.37
2023-01-30T07:13:10.540Z,88.30
2023-01-30T07:16:13.044Z,87.96
2023-01-30T07:19:15.452Z,87.86
2023-01-30T07:22:18.224Z,87.19
2023-01-30T07:25:22.429Z,86.37
2023-01-30T07:28:25.150Z,86.61
2023-01-30T07:31:27.689Z,86.25
2023-01-30T07:34:30.389Z,86.93
2023-01-30T07:37:32.837Z,87.25
2023-01-30T07:40:35.402Z,87.35
2023-01-30T07:43:37.811Z,87.03
2023-01-30T07:46:40.452Z,86.95
2023-01-30T07:49:44.019Z,86.88
2023-01-30T07:52:46.493Z,86.40
2023-01-30T07:55:49.028Z,85.31
2023-01-30T07:58:51.474Z,86.15
2023-01-30T08:01:53.944Z,85.64
2023-01-30T08:04:56.411Z,85.58
2023-01-30T08:08:00.940Z,85.80
2023-01-30T08:11:03.728Z,85.86
2023-01-30T08:14:06.194Z,85.62
2023-01-30T08:17:08.614Z,84.76
2023-01-30T08:20:11.686Z,84.70
2023-01-30T08:23:14.828Z,84.08
2023-01-30T08:26:17.497Z,82.56
2023-01-30T08:29:20.124Z,81.86
2023-01-30T08:32:22.525Z,82.64
2023-01-30T08:35:25.102Z,81.15
2023-01-30T08:38:27.589Z,80.38
2023-01-30T08:41:30.042Z,81.33
2023-01-30T08:44:32.498Z,80.30
2023-01-30T08:47:35.718Z,80.65
2023-01-30T08:50:38.253Z,78.98
2023-01-30T08:53:40.669Z,78.07
2023-01-30T08:56:43.100Z,79.22
2023-01-30T08:59:46.004Z,78.71
2023-01-30T09:02:48.717Z,79.06
2023-01-30T09:05:56.136Z,78.44
2023-01-30T09:08:59.761Z,79.33
2023-01-30T09:12:02.208Z,79.35
2023-01-30T09:15:05.355Z,79.37
2023-01-30T09:18:07.869Z,78.20
2023-01-30T09:21:11.984Z,78.32
2023-01-30T09:24:14.860Z,77.93
2023-01-30T09:27:17.306Z,77.35
2023-01-30T09:30:20.532Z,77.94
2023-01-30T09:33:23.321Z,76.71
2023-01-30T09:36:25.824Z,76.87
2023-01-30T09:39:28.969Z,77.43
2023-01-30T09:43:03.763Z,77.54
2023-01-30T09:46:37.703Z,77.07
2023-01-30T09:50:17.809Z,76.36
2023-01-30T09:53:35.348Z,76.21
2023-01-30T09:56:37.817Z,75.99
2023-01-30T09:59:46.409Z,75.58
2023-01-30T10:03:14.363Z,76.19
2023-01-30T10:06:17.012Z,76.06
2023-01-30T10:09:51.454Z,76.72
2023-01-30T10:13:03.894Z,75.34
2023-01-30T10:16:06.222Z,76.32
2023-01-30T10:19:35.213Z,75.48
2023-01-30T10:22:37.815Z,75.08
2023-01-30T10:26:10.057Z,75.67
2023-01-30T10:29:23.294Z,76.49
2023-01-30T10:32:31.724Z,76.43
2023-01-30T10:35:36.508Z,76.32
2023-01-30T10:38:48.205Z,76.23
2023-01-30T10:42:12.033Z,76.26
2023-01-30T10:45:20.551Z,75.85
2023-01-30T10:48:43.036Z,75.57
2023-01-30T10:52:24.355Z,76.05
2023-01-30T10:55:40.926Z,75.39
2023-01-30T10:58:53.480Z,75.16
2023-01-30T11:02:17.168Z,75.50
2023-01-30T11:05:24.895Z,75.66
2023-01-30T11:08:30.638Z,75.22
2023-01-30T11:11:53.259Z,75.55
2023-01-30T11:15:04.196Z,74.84
2023-01-30T11:19:14.782Z,73.95
2023-01-30T11:21:42.340Z,73.72
2023-01-30T11:24:49.418Z,73.83
2023-01-30T11:27:55.653Z,74.88
2023-01-30T11:31:00.694Z,75.35
2023-01-30T11:34:13.437Z,75.66
2023-01-30T11:37:25.671Z,75.18
2023-01-30T11:40:31.269Z,75.21
2023-01-30T11:43:37.281Z,75.61
2023-01-30T11:46:42.492Z,75.78
2023-01-30T11:49:59.892Z,75.98
2023-01-30T11:53:07.405Z,75.15
2023-01-30T11:56:22.385Z,75.00
2023-01-30T11:59:29.226Z,75.20
2023-01-30T12:02:32.208Z,74.74
2023-01-30T12:05:42.246Z,74.75
2023-01-30T12:08:44.725Z,75.19
2023-01-30T12:11:47.309Z,75.72
2023-01-30T12:14:50.601Z,75.29
2023-01-30T12:18:01.483Z,76.37
2023-01-30T12:21:09.031Z,76.15
2023-01-30T12:24:22.715Z,76.99
2023-01-30T12:27:32.028Z,77.03
2023-01-30T12:30:42.331Z,77.63
2023-01-30T12:33:45.105Z,78.12
2023-01-30T12:37:09.578Z,77.70
2023-01-30T12:40:30.313Z,78.32
2023-01-30T12:43:45.025Z,78.35
2023-01-30T12:47:18.256Z,78.67
2023-01-30T12:50:23.817Z,78.49
2023-01-30T12:54:00.253Z,78.24
2023-01-30T12:57:02.648Z,78.50
2023-01-30T13:00:28.179Z,78.44
2023-01-30T13:04:22.131Z,78.38
2023-01-30T13:07:33.414Z,78.54
2023-01-30T13:10:54.706Z,78.67
2023-01-30T13:14:20.290Z,78.96
2023-01-30T13:17:38.737Z,78.90
2023-01-30T13:21:00.564Z,78.74
2023-01-30T13:24:18.338Z,78.28
2023-01-30T13:27:22.154Z,79.04
2023-01-30T13:30:27.671Z,78.70
2023-01-30T13:33:34.060Z,79.15
2023-01-30T13:37:08.921Z,78.48
2023-01-30T13:40:14.603Z,79.01
2023-01-30T13:43:27.341Z,79.23
2023-01-30T13:46:31.843Z,79.57
2023-01-30T13:49:50.739Z,79.35
2023-01-30T13:53:00.539Z,79.34
2023-01-30T13:56:40.321Z,79.32
2023-01-30T14:00:00.897Z,79.36
2023-01-30T14:03:03.450Z,78.84
2023-01-30T14:06:10.037Z,79.30
2023-01-30T14:09:20.611Z,78.96
2023-01-30T14:12:25.736Z,79.10
2023-01-30T14:15:32.101Z,79.61
2023-01-30T14:18:39.098Z,79.48
2023-01-30T14:21:54.685Z,79.65
2023-01-30T14:25:25.130Z,79.67
2023-01-30T14:28:30.322Z,79.77
2023-01-30T14:31:47.909Z,79.98
2023-01-30T14:35:02.522Z,80.53
2023-01-30T14:38:16.310Z,80.68
2023-01-30T14:41:27.369Z,81.32
2023-01-30T14:45:02.328Z,81.45
2023-01-30T14:48:24.116Z,82.17
2023-01-30T14:51:48.839Z,82.04
2023-01-30T14:54:51.648Z,82.04
2023-01-30T14:58:00.089Z,81.72
2023-01-30T15:01:02.623Z,81.79
2023-01-30T15:04:05.317Z,81.68
2023-01-30T15:07:13.801Z,82.09
2023-01-30T15:10:28.349Z,81.85
2023-01-30T15:13:39.465Z,82.18
2023-01-30T15:16:57.351Z,82.04
2023-01-30T15:20:13.345Z,81.69
2023-01-30T15:23:35.691Z,81.90
2023-01-30T15:27:01.714Z,81.47
2023-01-30T15:30:17.455Z,82.04
2023-01-30T15:33:30.903Z,82.13
2023-01-30T15:36:35.866Z,82.44
2023-01-30T15:39:38.344Z,83.06
2023-01-30T15:43:18.469Z,82.33
2023-01-30T15:46:35.993Z,82.99
2023-01-30T15:49:50.863Z,82.68
2023-01-30T15:52:56.540Z,82.35
2023-01-30T15:56:00.923Z,82.22
2023-01-30T15:59:03.636Z,81.67
2023-01-30T16:02:42.079Z,81.49
2023-01-30T16:05:55.811Z,81.62
2023-01-30T16:09:04.390Z,81.55
2023-01-30T16:12:23.715Z,81.42
2023-01-30T16:15:35.675Z,80.86
2023-01-30T16:18:43.188Z,81.28
2023-01-30T16:21:46.585Z,81.35
2023-01-30T16:24:53.230Z,80.94
2023-01-30T16:27:56.025Z,80.68
2023-01-30T16:31:03.112Z,80.94
2023-01-30T16:34:06.086Z,80.96
2023-01-30T16:37:20.645Z,80.83
2023-01-30T16:40:28.983Z,80.95
2023-01-30T16:43:34.751Z,81.27
2023-01-30T16:46:57.727Z,81.57
2023-01-30T16:50:00.469Z,81.62
2023-01-30T16:53:02.944Z,81.69
2023-01-30T16:56:09.964Z,82.13
2023-01-30T16:59:19.617Z,81.97
2023-01-30T17:02:39.961Z,82.23
2023-01-30T17:05:43.136Z,82.68
2023-01-30T17:08:50.661Z,82.81
2023-01-30T17:11:53.265Z,82.81
2023-01-30T17:15:09.244Z,82.54
2023-01-30T17:18:13.077Z,83.24
2023-01-30T17:21:16.088Z,82.69
2023-01-30T17:24:21.340Z,83.21
2023-01-30T17:27:23.986Z,83.56
2023-01-30T17:30:26.479Z,83.87
2023-01-30T17:33:28.867Z,83.86
2023-01-30T17:36:32.335Z,83.72
2023-01-30T17:39:34.896Z,83.82
2023-01-30T17:42:37.298Z,84.27
2023-01-30T17:45:39.938Z,84.65
2023-01-30T17:48:43.081Z,85.12
2023-01-30T17:51:46.215Z,85.54
2023-01-30T17:54:48.918Z,85.47
2023-01-30T17:57:51.879Z,85.96
2023-01-30T18:00:54.361Z,86.20
2023-01-30T18:03:56.809Z,86.30
2023-01-30T18:07:03.999Z,87.05
2023-01-30T18:10:07.425Z,87.80
2023-01-30T18:13:09.991Z,87.79
2023-01-30T18:16:20.081Z,88.05
2023-01-30T18:19:24.167Z,87.76
2023-01-30T18:22:26.717Z,87.97
2023-01-30T18:25:29.383Z,88.16
2023-01-30T18:28:32.352Z,88.71
2023-01-30T18:31:35.705Z,88.88
2023-01-30T18:34:38.850Z,88.71
2023-01-30T18:37:41.437Z,88.90
2023-01-30T18:40:44.364Z,89.42
2023-01-30T18:43:48.601Z,89.54
2023-01-30T18:46:51.406Z,90.11
2023-01-30T18:49:54.206Z,90.06
2023-01-30T18:52:58.141Z,90.04
2023-01-30T18:56:01.509Z,89.59
2023-01-30T18:59:05.584Z,90.19
2023-01-30T19:02:12.560Z,89.89
2023-01-30T19:05:15.402Z,89.86
2023-01-30T19:08:18.433Z,89.92
2023-01-30T19:11:40.626Z,90.05
2023-01-30T19:14:43.699Z,90.47
2023-01-30T19:17:46.778Z,90.36
2023-01-30T19:20:49.205Z,90.29
2023-01-30T19:23:52.261Z,90.79
2023-01-30T19:26:55.081Z,90.73
2023-01-30T19:29:58.586Z,89.42
2023-01-30T19:33:01.530Z,89.45
2023-01-30T19:36:14.151Z,89.54
2023-01-30T19:39:16.928Z,89.84
2023-01-30T19:42:19.926Z,89.47
2023-01-30T19:45:23.061Z,90.13
2023-01-30T19:48:26.023Z,89.85
2023-01-30T19:51:31.571Z,90.38
2023-01-30T19:54:34.503Z,90.65
2023-01-30T19:57:37.252Z,90.77
2023-01-30T20:00:40.263Z,90.17
2023-01-30T20:03:43.493Z,89.82
2023-01-30T20:06:46.347Z,89.37
2023-01-30T20:09:48.871Z,89.52
2023-01-30T20:12:51.593Z,89.72
2023-01-30T20:15:56.564Z,89.55
2023-01-30T20:19:13.130Z,89.37
2023-01-30T20:22:15.896Z,89.36
2023-01-30T20:25:18.597Z,89.18
2023-01-30T20:28:21.365Z,89.15
2023-01-30T20:31:26.343Z,89.38
2023-01-30T20:34:29.325Z,89.41
2023-01-30T20:37:31.909Z,89.25
2023-01-30T20:40:34.558Z,89.31
2023-01-30T20:43:38.973Z,89.33
2023-01-30T20:46:44.084Z,89.33
2023-01-30T20:49:47.870Z,89.34
2023-01-30T20:52:53.589Z,89.88
2023-01-30T20:55:59.841Z,90.22
2023-01-30T20:59:03.536Z,90.33
2023-01-30T21:02:06.507Z,89.71
2023-01-30T21:05:09.146Z,89.62
2023-01-30T21:08:11.504Z,90.16
2023-01-30T21:11:16.444Z,90.22
2023-01-30T21:14:18.914Z,89.68
2023-01-30T21:17:21.413Z,90.24
2023-01-30T21:20:24.180Z,90.00
2023-01-30T21:23:27.822Z,90.12
2023-01-30T21:26:32.764Z,90.12
2023-01-30T21:29:36.883Z,90.82
2023-01-30T21:32:39.446Z,90.96
2023-01-30T21:35:42.016Z,90.49
2023-01-30T21:39:03.392Z,90.61
2023-01-30T21:42:26.388Z,90.69
2023-01-30T21:45:28.819Z,90.91
2023-01-30T21:48:31.573Z,91.41
2023-01-30T21:51:34.453Z,91.73
2023-01-30T21:54:36.913Z,92.38
2023-01-30T21:57:39.939Z,92.82
2023-01-30T22:00:42.546Z,92.93
2023-01-30T22:03:45.180Z,93.12
2023-01-30T22:06:47.577Z,94.22
2023-01-30T22:09:50.060Z,93.43
2023-01-30T22:12:52.499Z,94.15
2023-01-30T22:15:54.918Z,94.50
2023-01-30T22:19:00.243Z,94.25
2023-01-30T22:22:03.374Z,94.19
2023-01-30T22:25:06.576Z,94.24
2023-01-30T22:28:10.265Z,94.76
2023-01-30T22:31:14.325Z,94.57
2023-01-30T22:34:16.766Z,93.88
2023-01-30T22:37:19.231Z,94.01
2023-01-30T22:40:21.785Z,94.25
2023-01-30T22:43:24.205Z,94.98
2023-01-30T22:46:30.182Z,95.20
2023-01-30T22:49:32.738Z,94.23
2023-01-30T22:52:35.729Z,94.64
2023-01-30T22:55:38.665Z,95.74
2023-01-30T22:58:41.797Z,95.15
2023-01-30T23:01:46.394Z,94.80
2023-01-30T23:04:50.484Z,95.43
2023-01-30T23:07:53.021Z,94.95
2023-01-30T23:10:55.524Z,95.47
2023-01-30T23:14:05.008Z,95.96
2023-01-30T23:17:26.665Z,95.94
2023-01-30T23:20:29.262Z,96.14
2023-01-30T23:23:32.149Z,96.05
2023-01-30T23:26:36.654Z,97.06
2023-01-30T23:29:40.100Z,97.06
2023-01-30T23:32:42.760Z,97.00
2023-01-30T23:35:45.310Z,96.94
2023-01-30T23:38:49.155Z,97.04
2023-01-30T23:41:51.681Z,97.30
2023-01-30T23:44:54.168Z,97.09
2023-01-30T23:47:56.663Z,98.28
2023-01-30T23:51:02.188Z,98.50
2023-01-30T23:54:05.636Z,98.30
2023-01-30T23:57:08.070Z,98.81
